Home Team Position History
You can show your support by sponsoring this page for $50.  
Your ad/message will appear in this space for one year.  
Thank you for your support!       Team History Index Chicago White Sox
         
          Left Field
             
Pos St All- Other Left Field Fielding Statistics Pos St Batting Statistics as Left Fielder Win Shares Pos St
Year Rank Rank Name HOF MVP Star Rookie GG SS Team Stdg Bats Age Pos Games PO Assts Err DP F Pct. Year Rank Rank Name At Bats Hits 2B 3B HR Runs RBI BB IBB SO HP SH SF SB CS GDP BA OBA SA OPS RC B WS F WS T WS BWS/G FWS/G TWS/G Adj WSQ Year Rank Rank Name
1901 1 1 Herm McFarland     CHI 1 L 31   132 283 14 17 3 .946   1901 1 1 Herm McFarland 473 130 21 9 4 83 59 75 9 11 33 .275 .384 .383 .767 99   16.1 5.1 21.2 .122 .039 .161 25.31 1901 1 1 Herm McFarland
         
1902 5 5 Sam Mertes     CHI 4 R 29   111 206 24 19 4 .924   1902 5 5 Sam Mertes 421 119 19 6 1 51 67 31 2 7 39 .283 .335 .363 .698 69   11.9 3.0 14.9 .107 .027 .134 14.12 1902 5 5 Sam Mertes
         
1903 6 5 Ducky Holmes     CHI 7 L 34   82 151 14 6 0 .965   1903 6 5 Ducky Holmes 332 93 7 5 0 51 17 24 4 16 24 .280 .336 .331 .667 44   8.6 1.9 10.5 .105 .023 .128 10.12 1903 6 5 Ducky Holmes
1903 10 Bill H. Hallman     CHI 7 L 27   51 102 6 5 0 .956   1903 10 Bill H. Hallman 185 38 6 4 0 26 16 28 3 2 10 .205 .319 .281 .600 23   4.4 1.1 5.5 .086 .022 .108 4.86 1903 10 Bill H. Hallman
         
1904 8 7 Nixey Callahan     CHI 3 R 30 2B   104 158 9 4 0 .977   1904 8 7 Nixey Callahan 380 99 18 2 0 52 43 31 1 26 23 .261 .318 .318 .636 49   11.0 2.7 13.7 .106 .026 .132 13.05 1904 8 7 Nixey Callahan
1904 5 Ducky Holmes     CHI 3 L 35   53 92 7 3 2 .971   1904 5 Ducky Holmes 211 66 9 8 1 35 16 12 3 8 11 .313 .358 .445 .803 39   11.2 1.9 13.1 .211 .036 .247 17.09 1904 5 Ducky Holmes
         
1905 11 8 Ducky Holmes     CHI 2 L 36   87 146 11 11 1 .935   1905 11 8 Ducky Holmes 321 65 15 2 0 41 22 19 6 28 11 .202 .260 .262 .522 24   1.8 2.2 4.0 .021 .025 .046 2.27 1905 11 8 Ducky Holmes
1905 6 Nixey Callahan     CHI 2 R 31 RF   71 91 7 5 0 .951   1905 6 Nixey Callahan 263 72 14 5 1 38 33 22 3 8 20 .274 .337 .376 .713 44   10.8 1.7 12.5 .152 .024 .176 13.90 1905 6 Nixey Callahan
         
1906 6 5 Patsy Dougherty     CHI 1 L 29   74 118 10 2 1 .985   1906 6 5 Patsy Dougherty 253 59 9 4 1 30 27 19 3 18 11 .233 .295 .312 .607 29   6.0 2.2 8.2 .081 .030 .111 7.63 1906 6 5 Patsy Dougherty
1906 5 Ed Hahn     CHI 1 L 30 RF   55 69 8 4 1 .951   1906 5 Ed Hahn 205 47 3 2 0 34 11 29 4 6 8 .229 .336 .263 .599 28   6.6 1.2 7.8 .120 .022 .142 8.16 1906 5 Ed Hahn
         
1907 4 4 Patsy Dougherty     CHI 3 L 30   148 209 19 13 4 .946   1907 4 4 Patsy Dougherty 533 144 17 2 1 69 59 36 5 17 33 .270 .322 .315 .637 74   16.3 4.0 20.3 .110 .027 .137 19.87 1907 4 4 Patsy Dougherty
         
1908 2 2 Patsy Dougherty     CHI 3 L 31   128 173 7 10 1 .947   1908 2 2 Patsy Dougherty 482 134 11 6 0 68 45 58 10 19 47 .278 .367 .326 .693 82   26.2 2.4 28.6 .205 .019 .223 34.10 1908 2 2 Patsy Dougherty
         
1909 1 1 Patsy Dougherty     CHI 4 L 32   138 184 10 12 0 .942   1909 1 1 Patsy Dougherty 491 140 23 13 1 71 55 51 6 21 36 .285 .359 .391 .750 84   22.9 2.3 25.2 .166 .017 .183 29.62 1909 1 1 Patsy Dougherty
         
1910 5 5 Patsy Dougherty     CHI 6 L 33   121 158 9 14 2 .923   1910 5 5 Patsy Dougherty 443 110 8 6 1 45 43 41 4 4 22 .248 .318 .300 .618 56   11.8 2.1 13.9 .098 .017 .115 13.85 1910 5 5 Patsy Dougherty
         
1911 6 6 Nixey Callahan     CHI 4 R 37   93 137 8 6 2 .960   1911 6 6 Nixey Callahan 380 107 11 4 2 52 49 12 2 17 37 .282 .307 .347 .654 52   7.3 1.5 8.8 .078 .016 .095 8.03 1911 6 6 Nixey Callahan
1911 5 Patsy Dougherty     CHI 4 L 34   56 78 6 6 1 .933   1911 5 Patsy Dougherty 211 61 10 9 0 39 32 26 5 10 19 .289 .380 .422 .802 42   7.9 0.8 8.7 .141 .014 .155 10.17 1911 5 Patsy Dougherty
         
1912 10 7 Nixey Callahan     CHI 4 R 38   107 166 3 11 0 .939   1912 10 7 Nixey Callahan 408 111 9 7 1 45 52 12 3 22 19 .272 .298 .336 .634 46   5.8 1.1 6.9 .054 .010 .064 5.48 1912 10 7 Nixey Callahan
1912 16 Harry Lord     CHI 4 L 30 3B   32 42 4 2 2 .958   1912 16 Harry Lord 121 32 4 3 1 17 11 11 1 6 6 .264 .331 .372 .703 18   2.9 0.4 3.3 .091 .013 .103 3.32 1912 16 Harry Lord
         
1913 10 8 Larry Chappell   R   CHI 5 L 23   52 97 4 5 1 .953   1913 10 8 Larry Chappell 183 42 7 1 0 18 13 16 19 1 4 6 .230 .295 .279 .574 16   1.8 1.5 3.3 .035 .029 .063 2.64 1913 10 8 Larry Chappell
1913 7 Ping Bodie     CHI 5 R 25 CF   43 67 5 3 0 .960   1913 7 Ping Bodie 147 39 5 3 3 14 17 13 21 1 8 2 .265 .329 .401 .730 20   4.1 1.3 5.4 .095 .030 .126 6.07 1913 7 Ping Bodie
1913 11 Biff Schaller   R   CHI 5 L 23   32 45 0 4 0 .918   1913 11 Biff Schaller 96 21 3 0 0 12 4 20 16 0 4 5 .219 .353 .250 .603 11   1.9 0.4 2.3 .059 .013 .072 1.96 1913 11 Biff Schaller
         
1914 4 4 Ray Demmitt     CHI T6 L 30   127 191 21 11 3 .951   1914 4 4 Ray Demmitt 457 118 12 11 2 56 41 54 43 5 13 11 18 .258 .343 .346 .689 56   10.5 3.6 14.1 .083 .028 .111 13.53 1914 4 4 Ray Demmitt
         
1915 4 4 Jack Fournier     CHI 3 L 25 1B   38 68 7 5 2 .938   1915 4 4 Jack Fournier 131 42 6 6 2 27 24 20 12 5 4 7 5 .321 .429 .504 .933 32   8.0 0.8 8.8 .211 .021 .232 11.88 1915 4 4 Jack Fournier
1915 11 Happy Felsch   R   CHI 3 R 23 CF   34 59 3 4 0 .939   1915 11 Happy Felsch 124 31 5 3 1 19 15 15 17 1 4 5 5 .250 .336 .363 .699 17   3.2 0.6 3.8 .094 .018 .112 3.56 1915 11 Happy Felsch
1915 10 Braggo Roth   R   CHI 3 R 22 3B,CF   29 43 5 3 0 .941   1915 10 Braggo Roth 107 27 3 4 1 20 16 13 22 1 2 5 3 .252 .339 .383 .722 17   3.5 0.3 3.8 .121 .010 .131 3.86 1915 10 Braggo Roth
1915 15 Shano Collins     CHI 3 R 29 1B,CF,RF   20 35 2 2 0 .949   1915 15 Shano Collins 76 19 3 2 0 10 11 4 7 1 5 5 3 .250 .296 .342 .638 10   1.6 0.4 2.0 .080 .020 .100 1.77 1915 15 Shano Collins
         
1916 1 1 Joe Jackson Ban     CHI 2 L 26 RF   131 245 14 7 4 .974   1916 1 1 Joe Jackson 500 171 34 18 3 77 66 39 21 4 14 20 12 .342 .394 .500 .894 97   25.5 3.4 28.9 .195 .026 .221 36.48 1916 1 1 Joe Jackson
1916 9 Shano Collins     CHI 2 R 30 RF   23 40 3 2 1 .956   1916 9 Shano Collins 86 21 5 2 0 12 7 10 8 0 3 3 0 .244 .323 .349 .672 10   1.9 0.5 2.4 .083 .022 .104 2.08 1916 9 Shano Collins
         
1917 2 2 Joe Jackson Ban     CHI 1 L 27   134 315 16 6 4 .982   1917 2 2 Joe Jackson 497 150 18 16 5 84 69 53 23 6 18 12 .302 .376 .433 .809 91   24.4 3.8 28.2 .182 .028 .210 34.54 1917 2 2 Joe Jackson
         
Pos St All- Other Left Field Fielding Statistics Pos St Batting Statistics as Left Fielder Win Shares Pos St
Year Rank Rank Name HOF MVP Star Rookie GG SS Team Stdg Bats Age Pos Games PO Assts Err DP F Pct. Year Rank Rank Name At Bats Hits 2B 3B HR Runs RBI BB IBB SO HP SH SF SB CS GDP BA OBA SA OPS RC B WS F WS T WS BWS/G FWS/G TWS/G Adj WSQ Year Rank Rank Name
1918 4 3 Nemo Leibold     CHI 6 L 26   95 211 13 5 4 .978   1918 4 3 Nemo Leibold 367 92 12 6 0 48 26 53 27 0 8 11 .251 .345 .316 .661 44   8.2 1.7 9.9 .086 .018 .104 9.31 1918 4 3 Nemo Leibold
         
1919 3 3 Joe Jackson Ban     CHI 1 L 29   133 241 14 9 4 .966   1919 3 3 Joe Jackson 494 173 30 13 7 76 92 57 10 4 16 9 .350 .422 .506 .928 105   27.3 2.8 30.1 .205 .021 .226 36.82 1919 3 3 Joe Jackson
         
1920 1 1 Joe Jackson Ban     CHI 2 L 30   145 314 14 12 2 .965   1920 1 1 Joe Jackson 570 218 42 20 12 105 121 56 14 7 16 9 12 .382 .444 .589 1.033 138   33.2 3.4 36.6 .229 .023 .252 49.17 1920 1 1 Joe Jackson
         
1921 8 8 Bibb Falk   R   CHI 7 L 22   148 285 9 13 5 .958   1921 8 8 Bibb Falk 581 166 31 11 5 62 81 37 69 2 24 4 4 .286 .331 .403 .734 74   8.6 2.1 10.7 .058 .014 .072 7.54 1921 8 8 Bibb Falk
         
1922 7 7 Bibb Falk     CHI 5 L 23   126 246 10 10 2 .962   1922 7 7 Bibb Falk 472 141 26 1 12 57 77 26 54 0 23 2 6 .299 .335 .434 .769 66   9.6 2.6 12.2 .076 .021 .097 10.23 1922 7 7 Bibb Falk
         
1923 9 8 Bibb Falk     CHI 7 L 24   80 148 6 8 3 .951   1923 9 8 Bibb Falk 274 84 18 6 5 44 38 25 12 1 16 5 5 .307 .367 .471 .838 45   7.4 1.2 8.6 .093 .015 .108 7.32 1923 9 8 Bibb Falk
1923 15 Roy Elsh   R   CHI 7 R 30   50 108 6 5 1 .958   1923 15 Roy Elsh 183 46 6 2 0 25 21 14 20 1 4 14 7 .251 .308 .306 .614 16   0.8 0.9 1.7 .016 .018 .034 0.81 1923 15 Roy Elsh
1923 13 Bill Barrett   R   CHI 7 R 23   40 86 5 6 1 .938   1923 13 Bill Barrett 154 42 7 2 2 16 22 9 23 0 5 11 3 .273 .313 .383 .696 18   2.0 0.7 2.7 .050 .018 .068 1.82 1923 13 Bill Barrett
         
1924 2 2 Bibb Falk     CHI 8 L 25   134 292 26 10 4 .970   1924 2 2 Bibb Falk 526 185 37 8 6 77 99 47 21 1 20 6 6 .352 .406 .487 .893 103   18.6 2.3 20.9 .139 .017 .156 22.16 1924 2 2 Bibb Falk
1924 13 Bill Barrett     CHI 8 R 24 SS   25 39 5 4 3 .917   1924 13 Bill Barrett 132 36 6 2 1 17 18 10 12 1 3 5 3 .273 .329 .371 .700 16   1.6 0.2 1.8 .064 .008 .072 1.30 1924 13 Bill Barrett
         
1925 5 5 Bibb Falk     CHI 5 L 26   153 306 18 14 4 .959   1925 5 5 Bibb Falk 602 181 35 9 4 80 99 51 25 2 22 4 5 .301 .357 .409 .766 92   13.0 2.4 15.4 .085 .016 .101 13.64 1925 5 5 Bibb Falk
         
1926 2 2 Bibb Falk T12     CHI 5 L 27   155 338 16 3 4 .992   1926 2 2 Bibb Falk 566 195 43 4 8 86 108 66 22 2 23 9 10 .345 .415 .477 .892 105   20.3 3.8 24.1 .131 .025 .155 26.14 1926 2 2 Bibb Falk
         
1927 4 3 Bibb Falk     CHI 5 L 28   145 372 22 9 9 .978   1927 4 3 Bibb Falk 535 175 35 6 9 76 83 52 19 4 22 5 7 .327 .391 .465 .856 93   15.6 5.3 20.9 .108 .037 .144 21.50 1927 4 3 Bibb Falk
         
1928 9 8 Bibb Falk     CHI 5 L 29   78 164 9 5 0 .972   1928 9 8 Bibb Falk 286 83 18 4 1 42 37 25 16 0 10 5 1 .290 .347 .392 .739 42   6.6 1.8 8.4 .085 .023 .108 7.15 1928 9 8 Bibb Falk
1928 10 Alex Metzler T25     CHI 5 L 25 CF,RF   50 94 4 4 1 .961   1928 10 Alex Metzler 167 51 6 5 1 26 20 28 11 2 7 6 3 .305 .411 .419 .830 31   5.9 0.8 6.7 .118 .016 .134 6.36 1928 10 Alex Metzler
1928 18 George Blackerby   R   CHI 5 R 24   20 40 1 2 0 .953   1928 18 George Blackerby 83 21 0 0 0 8 12 4 10 0 4 2 1 .253 .287 .253 .540 6   - - - .000 .000 .000 - 1928 18 George Blackerby
         
1929 5 4 Alex Metzler     CHI 7 L 26   132 287 15 13 3 .959   1929 5 4 Alex Metzler 528 145 21 12 2 74 46 74 42 3 7 8 5 .275 .367 .371 .738 76   10.6 3.0 13.6 .080 .023 .103 12.05 1929 5 4 Alex Metzler
         
1930 7 6 Smead Jolley   R   CHI 7 L 28 RF   68 112 7 6 1 .952   1930 7 6 Smead Jolley 277 87 17 5 7 34 51 13 23 1 2 1 0 .314 .347 .487 .834 47   6.9 0.9 7.8 .101 .013 .115 7.24 1930 7 6 Smead Jolley
1930 8 Carl Reynolds       CHI 7 R 27 CF,RF   35 76 3 3 0 .963   1930 8 Carl Reynolds 145 52 6 5 6 27 27 5 10 2 3 4 1 .359 .388 .593 .981 32   5.5 0.7 6.2 .157 .020 .177 7.15 1930 8 Carl Reynolds
1930 10 Dave Harris       CHI 7 R 29 RF   23 46 1 0 0 1.000   1930 10 Dave Harris 86 21 2 1 5 16 13 7 22 1 3 0 0 .244 .309 .465 .774 12   1.7 0.6 2.3 .074 .026 .100 1.95 1930 10 Dave Harris
1930 19 Alex Metzler       CHI 7 L 27 CF,RF   21 24 1 1 0 .962   1930 19 Alex Metzler 61 11 3 0 0 9 4 8 5 0 2 0 1 .180 .275 .230 .505 4   0.1 0.3 0.4 .005 .014 .019 0.13 1930 19 Alex Metzler
           
1931 8 7 Lew Fonseca     CHI 8 R 32 1B,2B   80 146 3 4 1 .974   1931 8 7 Lew Fonseca 313 93 17 3 1 44 48 22 15 2 5 3 3 .297 .347 .380 .727 47   7.5 0.8 8.3 .094 .010 .104 7.14 1931 8 7 Lew Fonseca
1931 10 Bob Fothergill     CHI 8 R 33 RF   48 110 1 3 0 .974   1931 10 Bob Fothergill 202 57 6 3 2 16 36 11 11 1 1 1 1 .282 .322 .371 .693 27   3.6 0.6 4.2 .075 .013 .088 3.32 1931 10 Bob Fothergill
         
1932 11 8 Bob Fothergill     CHI 7 R 34 RF   53 83 2 4 0 .955   1932 11 8 Bob Fothergill 211 62 15 1 4 22 30 16 6 1 1 2 2 .294 .346 .431 .777 32   4.7 0.5 5.2 .089 .009 .098 4.39 1932 11 8 Bob Fothergill
1932 12 Bob Seeds     CHI 7 R 25 CF,RF   34 60 2 3 0 .954   1932 12 Bob Seeds 122 35 5 2 1 15 13 9 10 1 2 1 2 .287 .341 .385 .726 16   1.9 0.4 2.3 .056 .012 .068 1.61 1932 12 Bob Seeds
1932 14 Johnny Hodapp     CHI 7 R 26   29 54 0 2 0 .964   1932 14 Johnny Hodapp 128 29 6 0 2 15 15 8 2 0 1 1 0 .227 .272 .320 .592 12   0.5 0.2 0.7 .017 .007 .024 0.29 1932 14 Johnny Hodapp
         
1933 2 2 Al Simmons BBW 8 A   CHI 6 R 31   144 369 15 4 1 .990   1933 2 2 Al Simmons 601 199 29 10 14 84 118 39 49 2 2 5 1 .331 .374 .483 .857 105   19.4 5.0 24.4 .135 .035 .169 27.96 1933 2 2 Al Simmons
       
1934 1 1 Al Simmons BBW 11 A   CHI 8 R 32   136 281 14 4 3 .987   1934 1 1 Al Simmons 550 189 35 7 18 101 102 52 57 2 0 3 2 .344 .402 .531 .933 117   19.9 2.6 22.5 .146 .019 .165 25.17 1934 1 1 Al Simmons
       
1935 6 6 Rip Radcliff R   CHI 5 L 29   142 231 8 8 1 .968   1935 6 6 Rip Radcliff 623 178 28 8 10 95 68 53 21 4 2 4 4 .286 .346 .404 .750 89   10.4 2.9 13.3 .073 .020 .094 11.65 1935 6 6 Rip Radcliff
       
Pos St All- Other Left Field Fielding Statistics Pos St Batting Statistics as Left Fielder Win Shares Pos St
Year Rank Rank Name HOF MVP Star Rookie GG SS Team Stdg Bats Age Pos Games PO Assts Err DP F Pct. Year Rank Rank Name At Bats Hits 2B 3B HR Runs RBI BB IBB SO HP SH SF SB CS GDP BA OBA SA OPS RC B WS F WS T WS BWS/G FWS/G TWS/G Adj WSQ Year Rank Rank Name
1936 3 3 Rip Radcliff T16 A   CHI 3 L 30   132 213 6 15 2 .936   1936 3 3 Rip Radcliff 618 207 31 7 8 120 82 44 12 2 1 6 3 .335 .381 .447 .828 112   15.8 1.5 17.3 .120 .011 .131 18.29 1936 3 3 Rip Radcliff
       
1937 1 1 Rip Radcliff 15   CHI 3 L 31   139 273 9 10 5 .966   1937 1 1 Rip Radcliff 584 190 38 10 4 105 79 53 25 2 4 6 1 .325 .383 .445 .828 102   17.4 3.4 20.8 .125 .024 .150 23.64 1937 1 1 Rip Radcliff
       
1938 6 6 Rip Radcliff   CHI 6 L 32 1B   99 230 5 5 0 .979   1938 6 6 Rip Radcliff 408 135 19 5 4 52 66 29 14 1 4 4 6 .331 .377 .431 .808 65   8.4 2.3 10.7 .085 .023 .108 10.87 1938 6 6 Rip Radcliff
1938 8 Gee Walker   CHI 6 R 30 RF   50 92 4 4 1 .960   1938 8 Gee Walker 207 63 11 3 7 32 41 18 15 0 0 4 2 .304 .360 .488 .848 36   4.9 0.9 5.8 .098 .018 .116 6.10 1938 8 Gee Walker
       
1939 4 4 Gee Walker T21   CHI 4 R 31   147 365 11 13 3 .967   1939 4 4 Gee Walker 598 174 30 11 13 95 111 28 43 7 12 17 6 16 .291 .330 .443 .773 90   11.3 4.3 15.6 .077 .029 .106 14.72 1939 4 4 Gee Walker
       
1940 5 5 Moose Solters   CHI T4 R 34   107 266 6 8 2 .971   1940 5 5 Moose Solters 428 132 28 3 12 65 80 27 54 1 1 3 3 10 .308 .351 .472 .823 70   10.6 3.8 14.4 .099 .036 .135 13.70 1940 5 5 Moose Solters
1940 9 Larry Rosenthal   CHI T4 L 30   68 143 3 4 0 .973   1940 9 Larry Rosenthal 200 60 10 4 4 33 30 46 23 0 4 1 2 2 .300 .431 .450 .881 44   7.7 2.0 9.7 .113 .029 .143 9.50 1940 9 Larry Rosenthal
       
1941 13 8 Myril Hoag   CHI 3 R 33 CF   75 149 5 8 1 .951   1941 13 8 Myril Hoag 285 73 10 2 1 23 33 20 22 1 2 5 8 8 .256 .307 .316 .623 26   1.8 1.5 3.3 .024 .020 .044 1.85 1941 13 8 Myril Hoag
1941 9 Moose Solters   CHI 3 R 35   62 133 7 5 1 .966   1941 9 Moose Solters 247 64 9 4 4 24 42 18 31 1 1 3 2 8 .259 .312 .377 .689 29   3.7 1.7 5.4 .060 .027 .087 4.25 1941 9 Moose Solters
1941 14 Ben Chapman   CHI 3 R 32 CF   21 45 2 1 0 .979   1941 14 Ben Chapman 80 18 4 1 1 11 8 8 6 0 0 1 1 1 .225 .295 .338 .633 8   0.7 0.5 1.2 .033 .024 .057 0.77 1941 14 Ben Chapman
       
1942 6 6 Taffy Wright T23   CHI 6 L 30   81 174 6 6 1 .968   1942 6 6 Taffy Wright 296 99 13 5 0 42 46 47 9 4 1 1 8 5 .334 .432 .412 .844 56   12.8 2.1 14.9 .158 .026 .184 15.10 1942 6 6 Taffy Wright
1942 13 Myril Hoag   CHI 6 R 34 CF   41 73 4 3 1 .963   1942 13 Myril Hoag 138 33 6 1 1 16 12 12 7 0 3 6 3 5 .239 .300 .319 .619 13   1.3 0.9 2.2 .032 .022 .054 1.20 1942 13 Myril Hoag
       
1943 4 4 Guy Curtright R   CHI 4 R 30   128 301 7 9 1 .972   1943 4 4 Guy Curtright 488 142 20 7 3 67 48 69 60 3 12 13 12 11 .291 .382 .379 .761 73   18.5 2.6 21.1 .145 .020 .165 22.25 1943 4 4 Guy Curtright
       
1944 8 5 Eddie Carnett R   CHI 7 L 27 1B,CF   62 120 5 7 0 .947   1944 8 5 Eddie Carnett 236 65 9 4 1 26 31 13 18 3 2 3 1 3 .275 .321 .360 .681 29   5.7 1.0 6.7 .092 .016 .108 6.08 1944 8 5 Eddie Carnett
1944 12 Ralph Hodgin T31   CHI 7 L 28 3B   33 93 1 0 0 1.000   1944 12 Ralph Hodgin 133 39 7 2 0 16 15 6 4 2 1 1 0 3 .293 .333 .376 .709 17   3.7 0.9 4.6 .112 .027 .139 4.74 1944 12 Ralph Hodgin
1944 16 Guy Curtright   CHI 7 R 31   35 68 5 4 2 .948   1944 16 Guy Curtright 133 34 5 1 1 15 15 15 14 0 0 3 2 3 .256 .331 .331 .662 16   2.8 0.7 3.5 .080 .020 .100 3.05 1944 16 Guy Curtright
1944 15 Johnny Dickshot   CHI 7 R 34   35 63 3 2 1 .971   1944 15 Johnny Dickshot 142 36 7 4 0 16 13 11 9 1 3 2 0 1 .254 .312 .359 .671 18   3.4 0.6 4.0 .097 .017 .114 3.73 1944 15 Johnny Dickshot
       
1945 2 2 Johnny Dickshot   CHI 6 R 35   124 253 13 8 3 .971   1945 2 2 Johnny Dickshot 486 147 19 10 4 74 58 48 41 1 7 18 3 16 .302 .366 .407 .773 77   18.7 1.6 20.3 .151 .013 .164 22.68 1945 2 2 Johnny Dickshot
1945 9 Guy Curtright   CHI 6 R 32 CF   26 51 3 1 0 .982   1945 9 Guy Curtright 99 28 5 2 1 16 10 12 9 0 1 1 1 2 .283 .360 .404 .764 15   3.6 0.3 3.9 .138 .012 .150 4.17 1945 9 Guy Curtright
       
1946 9 8 Bob Kennedy   CHI 5 R 25 3B   59 117 8 5 1 .962   1946 9 8 Bob Kennedy 233 60 7 3 3 24 19 14 24 1 0 3 5 6 .258 .302 .352 .654 22   2.9 1.0 3.9 .049 .017 .066 2.69 1946 9 8 Bob Kennedy
1946 11 Ralph Hodgin   CHI 5 L 30   49 98 3 2 0 .981   1946 11 Ralph Hodgin 222 56 9 1 0 28 21 16 5 2 3 0 1 9 .252 .308 .302 .610 18   1.9 1.0 2.9 .039 .020 .059 1.90 1946 11 Ralph Hodgin
1946 15 Whitey Platt R   CHI 5 R 25 CF   25 47 2 2 0 .961   1946 15 Whitey Platt 100 25 3 2 1 11 13 7 14 1 0 0 3 4 .250 .306 .350 .656 9   1.1 0.5 1.6 .044 .020 .064 1.09 1946 15 Whitey Platt
       
1947 8 7 Ralph Hodgin   CHI 6 L 31   40 97 2 1 0 .990   1947 8 7 Ralph Hodgin 176 52 10 3 1 25 23 13 4 3 2 1 0 6 .295 .354 .403 .757 23   4.8 0.9 5.7 .120 .023 .143 5.81 1947 8 7 Ralph Hodgin
1947 14 Dave Philley R   CHI 6 B 27 CF   39 84 3 2 0 .978   1947 14 Dave Philley 156 40 7 3 1 16 13 10 11 0 1 6 5 4 .256 .301 .359 .660 15   1.8 0.8 2.6 .046 .021 .067 1.81 1947 14 Dave Philley
1947 10 Taffy Wright T31   CHI 6 L 35 RF   35 69 2 2 0 .973   1947 10 Taffy Wright 139 45 5 0 1 17 19 17 6 0 2 3 2 3 .324 .397 .381 .778 21   4.7 0.6 5.3 .134 .017 .151 5.57 1947 10 Taffy Wright
1947 18 Jack Wallaesa   CHI 6 B 27 SS   22 74 1 0 0 1.000   1947 18 Jack Wallaesa 90 18 4 0 3 11 14 10 22 0 0 1 1 2 .200 .280 .344 .624 8   0.7 0.6 1.3 .032 .027 .059 0.85 1947 18 Jack Wallaesa
       
1948 8 7 Pat Seerey   CHI 8 R 25   82 166 8 4 4 .978   1948 8 7 Pat Seerey 297 68 10 0 16 38 56 53 82 0 2 0 0 7 .229 .346 .424 .770 49   6.6 1.3 7.9 .080 .016 .096 6.85 1948 8 7 Pat Seerey
1948 15 Ralph Hodgin   CHI 8 L 32 RF   39 88 4 3 0 .968   1948 15 Ralph Hodgin 159 42 5 2 0 13 16 10 5 0 3 0 1 4 .264 .308 .321 .629 15   1.1 0.7 1.8 .028 .018 .046 1.08 1948 15 Ralph Hodgin
1948 18 Bob Kennedy   CHI 8 R 27 RF   25 51 2 2 0 .964   1948 18 Bob Kennedy 94 23 7 1 0 3 12 3 14 0 1 0 2 4 .245 .268 .340 .608 7   0.6 0.3 0.9 .024 .012 .036 0.46 1948 18 Bob Kennedy
       
1949 7 7 Gus Zernial R   CHI 6 R 26   46 73 4 0 0 1.000   1949 7 7 Gus Zernial 198 63 17 2 5 29 38 15 26 0 0 0 1 2 .318 .366 .500 .866 35   6.2 0.9 7.1 .135 .020 .154 7.60 1949 7 7 Gus Zernial
1949 15 Steve Souchock   CHI 6 R 30 1B   39 96 1 5 0 .951   1949 15 Steve Souchock 142 33 7 3 4 16 21 14 21 0 0 3 1 3 .232 .301 .408 .709 18   2.0 0.8 2.8 .051 .021 .072 2.04 1949 15 Steve Souchock
1949 13 Johnny Ostrowski   CHI 6 R 31   40 75 3 5 0 .940   1949 13 Johnny Ostrowski 124 33 7 3 4 15 24 12 32 1 1 3 2 3 .266 .336 .468 .804 18   2.6 0.6 3.2 .065 .015 .080 2.46 1949 13 Johnny Ostrowski
       
Pos St All- Other Left Field Fielding Statistics Pos St Batting Statistics as Left Fielder Win Shares Pos St
Year Rank Rank Name HOF MVP Star Rookie GG SS Team Stdg Bats Age Pos Games PO Assts Err DP F Pct. Year Rank Rank Name At Bats Hits 2B 3B HR Runs RBI BB IBB SO HP SH SF SB CS GDP BA OBA SA OPS RC B WS F WS T WS BWS/G FWS/G TWS/G Adj WSQ Year Rank Rank Name
1950 5 5 Gus Zernial   CHI 6 R 27   137 306 9 10 2 .969   1950 5 5 Gus Zernial 543 152 16 4 29 75 93 38 110 3 0 0 2 16 .280 .330 .484 .814 80   10.1 2.8 12.9 .074 .020 .094 11.28 1950 5 5 Gus Zernial
       
1951 7 7 Don Lenhardt   CHI 4 R 28   53 116 2 2 0 .983   1951 7 7 Don Lenhardt 192 51 9 1 9 22 44 23 24 2 2 1 1 3 .266 .350 .464 .814 31   5.1 1.1 6.2 .096 .021 .117 5.81 1951 7 7 Don Lenhardt
1951 10 Bud Stewart   CHI 4 L 35   52 86 3 2 0 .978   1951 10 Bud Stewart 168 47 10 4 5 31 31 23 7 2 4 1 5 4 .280 .373 .476 .849 26   4.2 1.0 5.2 .081 .019 .100 4.51 1951 10 Bud Stewart
1951 8 Minnie Minoso 4 a R-2   CHI 4 R 28 3B,RF   44 73 2 3 0 .962   1951 8 Minnie Minoso 146 47 9 4 3 31 21 20 12 4 1 9 3 3 .322 .418 .500 .918 30   5.9 0.6 6.5 .134 .014 .148 6.85 1951 8 Minnie Minoso
1951 12 Ray Coleman   CHI 4 L 29 CF,RF   23 44 1 1 0 .978   1951 12 Ray Coleman 63 18 3 2 1 7 7 5 5 0 0 1 1 2 .286 .338 .444 .782 9   1.2 0.5 1.7 .052 .022 .074 1.27 1951 12 Ray Coleman
       
1952 4 4 Minnie Minoso a   CHI 3 R 29 CF   70 137 6 4 1 .973   1952 4 4 Minnie Minoso 260 73 11 4 6 44 28 32 21 6 6 10 7 7 .281 .372 .423 .795 40   7.6 1.5 9.1 .109 .021 .130 9.76 1952 4 4 Minnie Minoso
1952 7 Bud Stewart   CHI 3 L 36   57 103 1 2 0 .981   1952 7 Bud Stewart 214 57 10 0 5 22 29 27 16 1 4 3 0 1 .266 .351 .383 .734 30   5.6 1.1 6.7 .098 .019 .118 6.83 1952 7 Bud Stewart
1952 18 Ray Coleman   CHI 3 L 30 CF,RF   28 42 2 1 0 .978   1952 18 Ray Coleman 72 15 3 0 1 7 5 5 6 0 2 0 0 2 .208 .260 .292 .552 5   0.1 0.4 0.5 .004 .014 .018 0.20 1952 18 Ray Coleman
1952 15 Tom Wright   CHI 3 L 28   22 38 1 1 0 .975   1952 15 Tom Wright 83 21 6 1 1 9 13 10 10 1 1 1 0 2 .253 .340 .386 .726 11   1.4 0.4 1.8 .064 .018 .082 1.53 1952 15 Tom Wright
       
1953 1 1 Minnie Minoso 4 a   CHI 3 R 30   145 275 15 10 3 .967   1953 1 1 Minnie Minoso 514 161 22 7 14 96 96 68 40 16 7 23 15 21 .313 .410 .465 .875 102   19.9 3.9 23.8 .137 .027 .164 28.31 1953 1 1 Minnie Minoso
       
1954 2 2 Minnie Minoso 4 a   CHI 3 R 31   123 285 137 3 3 .993   1954 2 2 Minnie Minoso 454 154 26 12 15 93 91 60 5 36 12 6 7 15 11 16 .339 .424 .548 .972 104   23.0 3.7 26.7 .187 .030 .217 35.33 1954 2 2 Minnie Minoso
       
1955 2 2 Minnie Minoso   CHI 3 R 32   134 272 18 9 3 .970   1955 2 2 Minnie Minoso 484 143 26 7 10 76 68 69 2 38 10 8 3 19 8 16 .295 .392 .440 .832 86   16.0 4.0 20.0 .119 .030 .149 22.99 1955 2 2 Minnie Minoso
1955 16 Bob Nieman   CHI 3 R 28 RF   27 45 1 3 0 .939   1955 16 Bob Nieman 90 18 5 1 2 11 11 6 0 11 0 0 0 0 0 6 .200 .250 .344 .594 6   1.1 0.6 1.7 .041 .022 .063 1.27 1955 16 Bob Nieman
       
1956 1 1 Minnie Minoso T27   CHI 3 R 33   148 282 10 8 1 .973   1956 1 1 Minnie Minoso 534 171 28 11 21 107 88 84 4 40 23 4 7 12 8 10 .320 .429 .532 .961 126   25.5 2.7 28.2 .172 .018 .191 34.41 1956 1 1 Minnie Minoso
       
1957 4 4 Minnie Minoso 8 a G   CHI 2 R 34   152 293 9 5 2 .984   1957 4 4 Minnie Minoso 568 176 36 5 12 97 103 78 5 54 21 1 9 18 16 19 .310 .407 .454 .861 104   22.7 3.9 26.6 .149 .026 .175 29.22 1957 4 4 Minnie Minoso
       
1958 9 8 Al Smith   CHI 2 R 30 RF   78 136 6 5 1 .966   1958 9 8 Al Smith 274 69 10 2 7 31 28 28 2 33 3 3 3 2 2 15 .252 .325 .380 .705 31   5.3 1.7 7.0 .068 .022 .090 5.79 1958 9 8 Al Smith
1958 10 Jim Rivera   CHI 2 L 35 RF   54 107 5 1 2 .991   1958 10 Jim Rivera 163 37 4 3 6 16 18 12 4 31 1 1 4 13 2 4 .227 .278 .399 .677 19   2.8 1.6 4.4 .052 .030 .081 3.47 1958 10 Jim Rivera
       
1959 9 7 Al Smith   CHI 1 R 31 RF   84 186 8 3 2 .985   1959 9 7 Al Smith 301 68 10 0 13 41 35 26 2 45 4 2 0 2 4 8 .226 .296 .389 .685 33   5.6 2.7 8.3 .067 .032 .099 7.76 1959 9 7 Al Smith
1959 19 Johnny Callison R   CHI 1 L 20   41 54 3 1 0 .983   1959 19 Johnny Callison 100 18 3 0 3 12 12 12 0 18 1 0 0 0 1 5 .180 .274 .300 .574 7   - 0.8 0.8 .000 .020 .020 0.33 1959 19 Johnny Callison
1959 15 Del Ennis   CHI 1 R 34   25 28 2 3 0 .909   1959 15 Del Ennis 93 20 5 0 2 10 7 3 0 10 0 0 0 0 0 2 .215 .240 .333 .573 7   0.9 0.3 1.2 .036 .012 .048 0.78 1959 15 Del Ennis
1959 13 Jim Rivera   CHI 1 L 36 RF   20 28 2 1 0 .968   1959 13 Jim Rivera 49 13 2 2 0 5 2 3 0 5 0 0 0 3 0 0 .265 .308 .388 .696 7   1.0 0.4 1.4 .050 .020 .070 1.10 1959 13 Jim Rivera
       
1960 3 3 Minnie Minoso 4 A(2) G   CHI 3 R 37   152 277 14 6 3 .980   1960 3 3 Minnie Minoso 576 180 31 3 20 90 104 50 2 62 13 5 9 17 14 16 .313 .375 .481 .856 101   20.5 2.5 23.0 .135 .016 .151 25.01 1960 3 3 Minnie Minoso
       
1961 3 3 Minnie Minoso   CHI 4 R 38   147 273 10 13 2 .956   1961 3 3 Minnie Minoso 539 150 28 3 14 90 82 67 2 46 16 0 12 9 4 11 .278 .368 .419 .787 89   17.1 1.9 19.0 .116 .013 .129 22.16 1961 3 3 Minnie Minoso
       
1962 5 5 Floyd Robinson 10   CHI 5 L 26 RF   113 159 10 6 2 .966   1962 5 5 Floyd Robinson 329 98 30 5 7 44 67 36 3 24 1 3 3 2 1 7 .298 .366 .483 .849 59   12.7 1.7 14.4 .112 .015 .127 15.50 1962 5 5 Floyd Robinson
1962 10 Charlie Maxwell   CHI 5 L 35 RF   49 87 2 0 1 1.000   1962 10 Charlie Maxwell 154 46 4 2 6 24 31 27 1 21 0 1 1 0 0 4 .299 .401 .468 .869 30   6.7 0.9 7.6 .137 .018 .155 9.02 1962 10 Charlie Maxwell
1962 11 Al Smith 33   CHI 5 R 34 3B   37 45 6 2 0 .962   1962 11 Al Smith 123 41 4 3 7 19 27 14 3 12 1 0 1 0 0 5 .333 .403 .585 .988 28   5.5 0.4 5.9 .149 .011 .159 7.10 1962 11 Al Smith
       
1963 6 6 Dave Nicholson   CHI 2 R 23   123 213 10 7 1 .970   1963 6 6 Dave Nicholson 446 102 11 4 22 53 69 63 0 175 0 0 8 2 1 3 .229 .319 .419 .738 64   12.5 2.7 15.2 .102 .022 .124 16.11 1963 6 6 Dave Nicholson
1963 16 Floyd Robinson T27   CHI 2 L 27 RF   42 39 1 1 1 .976   1963 16 Floyd Robinson 80 17 1 1 1 7 8 10 1 6 1 0 0 1 1 0 .213 .308 .288 .596 8   1.7 0.5 2.2 .040 .012 .052 1.52 1963 16 Floyd Robinson
1963 12 Charlie Maxwell   CHI 2 L 36   24 29 2 0 1 1.000   1963 12 Charlie Maxwell 67 18 2 2 3 13 11 13 0 14 0 0 2 0 0 2 .269 .378 .493 .871 13   2.6 0.4 3.0 .108 .017 .125 3.20 1963 12 Charlie Maxwell
       
Pos St All- Other Left Field Fielding Statistics Pos St Batting Statistics as Left Fielder Win Shares Pos St
Year Rank Rank Name HOF MVP Star Rookie GG SS Team Stdg Bats Age Pos Games PO Assts Err DP F Pct. Year Rank Rank Name At Bats Hits 2B 3B HR Runs RBI BB IBB SO HP SH SF SB CS GDP BA OBA SA OPS RC B WS F WS T WS BWS/G FWS/G TWS/G Adj WSQ Year Rank Rank Name
1964 9 8 Dave Nicholson   CHI 2 R 24   91 135 4 4 0 .972   1964 9 8 Dave Nicholson 285 58 6 1 12 38 38 50 0 122 3 0 1 0 2 5 .204 .327 .358 .685 36   7.0 2.3 9.3 .077 .025 .102 8.92 1964 9 8 Dave Nicholson
1964 11 Floyd Robinson 15   CHI 2 L 28 RF   61 60 3 1 0 .984   1964 11 Floyd Robinson 131 38 4 1 2 22 10 24 3 8 2 1 1 2 0 1 .290 .405 .382 .787 23   5.7 1.1 6.8 .093 .018 .111 6.81 1964 11 Floyd Robinson
1964 19 Tom McCraw   CHI 2 L 23 1B   32 31 4 2 0 .946   1964 19 Tom McCraw 96 19 2 1 1 13 6 10 1 16 0 1 0 4 1 2 .198 .274 .271 .545 8   1.6 0.6 2.2 .050 .019 .069 1.73 1964 19 Tom McCraw
1964 14 Gene Stephens   CHI 2 L 31 CF   32 38 1 1 1 .975   1964 14 Gene Stephens 52 15 2 2 3 9 10 9 1 10 1 1 1 0 1 0 .288 .397 .577 .974 13   2.5 0.6 3.1 .078 .019 .097 2.90 1964 14 Gene Stephens
       
1965 7 7 Danny Cater   CHI 2 R 25   127 173 6 4 2 .978   1965 7 7 Danny Cater 468 132 18 4 13 70 53 30 0 59 3 1 3 2 2 16 .282 .327 .421 .748 61   13.0 2.1 15.1 .102 .017 .119 14.91 1965 7 7 Danny Cater
1965 23 Tom McCraw   CHI 2 L 24 1B,CF   37 41 1 1 0 .977   1965 23 Tom McCraw 105 24 6 0 1 10 3 10 1 19 2 0 0 6 3 5 .229 .308 .314 .622 9   1.5 0.4 1.9 .041 .011 .051 1.23 1965 23 Tom McCraw
1965 27 Dave Nicholson   CHI 2 R 25   25 18 0 0 0 1.000   1965 27 Dave Nicholson 41 6 1 0 1 5 6 6 0 19 0 0 0 0 0 0 .146 .255 .244 .499 3   - 0.2 0.2 .000 .008 .008 0.05 1965 27 Dave Nicholson
       
1966 8 7 Ken Berry   CHI 4 R 25 RF   98 130 7 1 1 .993   1966 8 7 Ken Berry 290 81 16 1 6 32 24 14 3 40 2 6 0 4 5 4 .279 .317 .403 .720 35   6.6 2.1 8.7 .067 .021 .089 8.00 1966 8 7 Ken Berry
1966 19 Pete Ward   CHI 4 L 26   44 63 3 1 1 .985   1966 19 Pete Ward 132 35 5 0 1 17 9 14 0 24 1 0 3 2 1 3 .265 .333 .326 .659 15   1.9 0.9 2.8 .043 .020 .064 2.18 1966 19 Pete Ward
1966 20 Tom McCraw   CHI 4 L 25 1B   29 34 0 0 0 1.000   1966 20 Tom McCraw 79 22 1 3 0 7 9 7 0 9 0 4 1 3 2 1 .278 .333 .367 .700 10   1.5 0.4 1.9 .052 .014 .066 1.50 1966 20 Tom McCraw
       
1967 10 9 Pete Ward   CHI 4 L 27 1B,3B,RF   73 88 2 1 0 .989   1967 10 9 Pete Ward 243 52 7 0 8 27 29 31 7 52 3 0 2 2 2 3 .214 .308 .342 .650 27   6.8 1.3 8.1 .093 .018 .111 8.06 1967 10 9 Pete Ward
1967 11 Walt Williams R   CHI 4 R 23 RF   58 89 5 2 2 .979   1967 11 Walt Williams 181 43 9 3 2 18 11 11 0 10 1 2 0 2 0 4 .238 .285 .354 .639 18   3.4 1.7 5.1 .059 .029 .088 4.52 1967 11 Walt Williams
1967 12 Ken Berry a-rep   CHI 4 R 26 CF,RF   54 52 1 0 0 1.000   1967 12 Ken Berry 107 33 4 1 2 9 14 10 1 11 1 1 1 2 4 1 .308 .370 .421 .791 16   3.2 0.9 4.1 .059 .017 .076 3.38 1967 12 Ken Berry
       
1968 10 8 Tommy Davis   CHI T8 R 29   115 170 8 7 2 .962   1968 10 8 Tommy Davis 419 110 5 3 7 33 46 15 2 44 0 3 5 4 2 15 .263 .285 .339 .624 37   5.6 1.7 7.3 .049 .015 .063 5.27 1968 10 8 Tommy Davis
1968 26 Buddy Bradford R   CHI T8 R 23 CF,RF   35 27 1 2 0 .933   1968 26 Buddy Bradford 46 9 1 0 0 3 3 0 0 11 0 0 1 2 1 2 .196 .191 .217 .408 1   0.1 0.2 0.3 .003 .006 .009 0.08 1968 26 Buddy Bradford
       
1969 7 7 Carlos May a R-3   CHI 5W L 21 RF   80 123 9 3 0 .978   1969 7 7 Carlos May 294 82 14 2 16 48 50 39 3 51 5 0 2 1 4 10 .279 .371 .503 .874 53   10.1 1.6 11.7 .126 .020 .146 13.94 1969 7 7 Carlos May
1969 28 Bob Christian R   CHI 5W R 23   37 66 3 3 0 .958   1969 28 Bob Christian 125 27 4 0 3 11 16 8 1 17 1 0 3 3 0 3 .216 .263 .320 .583 11   0.6 0.7 1.3 .016 .019 .035 0.76 1969 28 Bob Christian
1969 15 Walt Williams   CHI 5W R 25 RF   35 53 2 0 0 1.000   1969 15 Walt Williams 132 35 3 1 1 15 12 9 0 11 1 3 0 0 1 2 .265 .317 .326 .643 14   2.2 0.7 2.9 .063 .020 .083 2.60 1969 15 Walt Williams
       
1970 8 7 Carlos May   CHI 6W L 22   141 203 12 2 2 .991   1970 8 7 Carlos May 522 151 28 4 12 81 68 78 9 90 3 0 6 10 4 25 .289 .381 .427 .808 83   13.2 1.5 14.7 .094 .011 .104 13.32 1970 8 7 Carlos May
       
1971 9 8 Rick Reichardt   CHI 3W R 28   116 174 4 3 0 .983   1971 9 8 Rick Reichardt 411 119 12 2 15 45 47 31 0 67 4 3 2 5 10 9 .290 .344 .438 .782 58   9.7 1.8 11.5 .084 .016 .099 10.59 1971 9 8 Rick Reichardt
1971 15 Walt Williams   CHI 3W R 27 RF   35 58 3 0 1 1.000   1971 15 Walt Williams 123 40 8 1 3 20 14 6 0 9 2 2 2 1 3 1 .325 .361 .480 .841 21   3.8 0.7 4.5 .109 .020 .129 4.72 1971 15 Walt Williams
       
1972 2 2 Carlos May T21 a   CHI 2W L 24   145 215 13 4 2 .983   1972 2 2 Carlos May 514 158 25 3 12 81 68 75 13 69 7 0 4 21 12 9 .307 .400 .438 .838 93   25.9 2.4 28.3 .179 .017 .195 37.70 1972 2 2 Carlos May
       
1973 13 9 Carlos May T29   CHI 5W L 25 DH   70 118 7 1 0 .992   1973 13 9 Carlos May 267 62 8 0 6 28 36 22 2 39 2 1 3 5 4 6 .232 .293 .330 .623 25   4.4 1.5 5.9 .063 .021 .084 5.42 1973 13 9 Carlos May
1973 15 Jerry Hairston R   CHI 5W B 21   33 64 3 4 0 .944   1973 15 Jerry Hairston 120 33 8 0 0 15 13 19 0 19 0 0 0 0 0 0 .275 .374 .342 .716 17   3.2 0.6 3.8 .097 .018 .115 4.08 1973 15 Jerry Hairston
1973 22 Rick Reichardt   CHI 5W R 30 DH   30 53 1 0 1 1.000   1973 22 Rick Reichardt 106 31 7 1 1 11 11 8 0 17 1 1 0 2 2 3 .292 .348 .406 .754 15   1.8 0.6 2.4 .060 .020 .080 2.15 1973 22 Rick Reichardt
1973 29 Johnny Jeter   CHI 5W R 28 CF,RF   21 34 0 3 0 .919   1973 29 Johnny Jeter 82 17 2 1 2 9 8 3 0 22 0 0 1 1 0 4 .207 .233 .329 .562 5   0.5 0.3 0.8 .024 .014 .038 0.49 1973 29 Johnny Jeter
       
1974 16 9 Carlos May   CHI 4W L 26   129 245 11 3 1 .988   1974 16 9 Carlos May 496 131 19 2 8 65 55 41 2 65 1 2 4 8 9 8 .264 .319 .359 .678 53   6.3 2.1 8.4 .049 .016 .065 6.65 1974 16 9 Carlos May
       
1975 17 12 Jerry Hairston   CHI 5W B 23   56 107 5 5 0 .957   1975 17 12 Jerry Hairston 192 51 7 0 0 25 19 39 3 20 0 5 1 1 0 4 .266 .388 .302 .690 26   5.0 0.9 5.9 .089 .016 .105 5.77 1975 17 12 Jerry Hairston
1975 31 Nyls Nyman R   CHI 5W L 21 CF   62 106 6 4 0 .966   1975 31 Nyls Nyman 204 42 2 3 1 17 19 6 0 25 2 1 0 5 1 4 .206 .236 .260 .496 12   - 0.9 0.9 .000 .015 .015 0.33 1975 31 Nyls Nyman
1975 12 Carlos May   CHI 5W L 27 1B   46 72 6 2 1 .975   1975 12 Carlos May 162 45 9 0 4 28 21 29 4 16 4 0 2 4 4 4 .278 .396 .407 .803 27   5.0 1.0 6.0 .109 .022 .130 6.53 1975 12 Carlos May
       
1976 9 7 Jorge Orta   CHI 6W L 25 3B,DH   76 149 9 5 1 .969   1976 9 7 Jorge Orta 295 82 14 2 5 32 26 24 0 38 2 1 3 13 4 7 .278 .333 .390 .723 39   7.4 1.0 8.4 .097 .013 .111 8.62 1976 9 7 Jorge Orta
1976 22 Ralph Garr   CHI 6W L 30 CF,RF   51 71 2 3 0 .961   1976 22 Ralph Garr 149 39 5 3 1 17 7 5 0 11 0 3 1 2 2 2 .262 .284 .356 .640 15   2.9 0.5 3.4 .057 .010 .067 2.71 1976 22 Ralph Garr
1976 27 Alan Bannister R   CHI 6W R 24   29 48 0 0 0 1.000   1976 27 Alan Bannister 64 18 4 1 0 9 5 6 1 10 1 0 1 4 1 0 .281 .347 .375 .722 9   1.5 0.2 1.7 .052 .007 .059 1.27 1976 27 Alan Bannister
       
Pos St All- Other Left Field Fielding Statistics Pos St Batting Statistics as Left Fielder Win Shares Pos St
Year Rank Rank Name HOF MVP Star Rookie GG SS Team Stdg Bats Age Pos Games PO Assts Err DP F Pct. Year Rank Rank Name At Bats Hits 2B 3B HR Runs RBI BB IBB SO HP SH SF SB CS GDP BA OBA SA OPS RC B WS F WS T WS BWS/G FWS/G TWS/G Adj WSQ Year Rank Rank Name
1977 4 4 Ralph Garr   CHI 3W L 31   125 225 10 3 2 .987   1977 4 4 Ralph Garr 532 160 29 7 10 74 54 24 4 44 0 3 1 12 7 7 .301 .330 .438 .768 75   13.3 1.9 15.2 .106 .015 .122 16.68 1977 4 4 Ralph Garr
       
1978 11 10 Ralph Garr   CHI 5W L 32   109 205 5 9 2 .959   1978 11 10 Ralph Garr 412 115 18 9 3 64 29 24 1 37 1 8 0 6 5 8 .279 .320 .388 .708 50   8.1 2.1 10.2 .074 .019 .094 9.82 1978 11 10 Ralph Garr
       
1979 22 14 Ralph Garr   CHI 5W L 33 DH   67 94 3 5 1 .951   1979 22 14 Ralph Garr 231 67 8 2 5 26 25 9 0 14 1 2 2 2 3 2 .290 .317 .407 .724 29   3.9 1.0 4.9 .058 .015 .073 4.09 1979 22 14 Ralph Garr
1979 T24 Alan Bannister   CHI 5W R 27 2B   47 88 3 3 0 .968   1979 T24 Alan Bannister 184 44 14 2 0 21 13 10 0 17 3 1 2 9 3 4 .239 .286 .337 .623 18   2.7 0.5 3.2 .057 .011 .068 2.58 1979 T24 Alan Bannister
1979 31 Junior Moore   CHI 5W R 26   51 63 2 3 0 .956   1979 31 Junior Moore 120 32 4 1 0 14 15 10 0 10 0 0 4 0 2 4 .267 .313 .317 .630 11   1.8 0.7 2.5 .035 .014 .049 1.71 1979 31 Junior Moore
1979 39 Rusty Torres   CHI 5W B 30 RF   37 34 0 0 0 1.000   1979 39 Rusty Torres 31 7 1 0 1 3 4 5 0 5 0 1 0 0 0 1 .226 .333 .355 .688 4   0.6 0.4 1.0 .016 .011 .027 0.51 1979 39 Rusty Torres
1979 33 Thad Bosley   CHI 5W L 22   20 44 2 2 1 .958   1979 33 Thad Bosley 44 14 0 0 0 7 2 7 0 8 0 0 0 1 1 1 .318 .412 .318 .730 6   1.1 0.5 1.6 .055 .025 .080 1.40 1979 33 Thad Bosley
       
1980 20 13 Bob Molinaro CHI 5W L 30 DH   49 85 3 4 0 .957   1980 20 13 Bob Molinaro 164 43 6 2 1 18 17 10 2 16 4 0 2 12 3 2 .262 .317 .341 .658 19   3.6 0.9 4.5 .073 .018 .092 4.02 1980 20 13 Bob Molinaro
1980 21 Wayne Nordhagen CHI 5W R 31 RF,DH   45 74 2 1 1 .987   1980 21 Wayne Nordhagen 154 44 8 0 6 16 18 5 1 20 0 0 0 0 1 7 .286 .308 .455 .763 18   2.9 0.9 3.8 .064 .020 .084 3.26 1980 21 Wayne Nordhagen
1980 36 Thad Bosley CHI 5W L 23   33 45 0 1 0 .978   1980 36 Thad Bosley 66 13 1 0 0 3 2 6 3 13 0 1 0 1 1 3 .197 .264 .212 .476 3   - 0.4 0.4 .000 .012 .012 0.13 1980 36 Thad Bosley
1980 26 Claudell Washington CHI 5W L 25 NL-LF,RF   21 41 1 1 1 .977   1980 26 Claudell Washington 70 18 4 1 1 12 6 5 0 15 1 1 0 3 2 5 .257 .316 .386 .702 7   1.4 0.4 1.8 .067 .019 .086 1.55 1980 26 Claudell Washington
1980 29 Alan Bannister CHI 5W R 28 2B,3B,RF   22 35 0 0 0 1.000   1980 29 Alan Bannister 58 13 3 0 0 6 4 4 0 7 0 1 1 3 1 1 .224 .270 .276 .546 5   0.9 0.2 1.1 .041 .009 .050 0.71 1980 29 Alan Bannister
     
1981 13 12 Ron LeFlore CHI 3W R 33   76 144 5 5 2 .968   1981 13 12 Ron LeFlore 310 78 9 4 0 42 23 23 0 64 1 1 2 28 10 9 .252 .304 .306 .610 29   3.4 1.1 4.5 .045 .014 .059 3.23 1981 13 12 Ron LeFlore
1981 14 Wayne Nordhagen CHI 3W R 32 RF   27 33 0 2 0 .943   1981 14 Wayne Nordhagen 80 27 5 0 3 14 14 5 0 6 1 0 1 0 0 5 .338 .379 .513 .892 14   2.8 0.2 3.0 .104 .007 .111 2.95 1981 14 Wayne Nordhagen
1981 23 Rusty Kuntz R CHI 3W R 26   28 25 0 0 0 1.000   1981 23 Rusty Kuntz 25 5 1 0 0 3 4 3 0 4 1 1 0 1 0 0 .200 .310 .240 .550 2   0.3 0.2 0.5 .011 .007 .018 0.20 1981 23 Rusty Kuntz
     
1982 5 5 Steve Kemp CHI 3W L 27   154 280 6 7 1 .976   1982 5 5 Steve Kemp 570 163 22 1 19 93 98 86 8 79 3 1 6 7 6 8 .286 .379 .428 .807 97   20.1 1.7 21.8 .131 .011 .142 24.08 1982 5 5 Steve Kemp
1982 23 Jerry Hairston CHI 3W B 30   21 16 2 0 1 1.000   1982 23 Jerry Hairston 27 6 0 0 3 5 8 3 0 3 0 0 1 0 0 0 .222 .290 .556 .846 5   0.8 0.1 0.9 .038 .005 .043 0.55 1982 23 Jerry Hairston
     
1983 4 4 Ron Kittle a R-1 CHI 1W R 25   139 234 7 9 0 .964   1983 4 4 Ron Kittle 510 131 19 3 35 76 98 39 8 149 8 0 3 8 3 10 .257 .318 .512 .830 82   15.3 3.0 18.3 .110 .022 .132 19.67 1983 4 4 Ron Kittle
1983 24 Tom Paciorek CHI 1W R 36 1B,RF   30 37 1 0 0 1.000   1983 24 Tom Paciorek 66 18 5 0 1 8 8 6 1 18 0 0 0 0 1 2 .273 .333 .394 .727 8   1.6 0.6 2.2 .053 .020 .073 1.76 1983 24 Tom Paciorek
     
1984 10 9 Ron Kittle CHI T5W R 26   124 226 14 7 2 .972   1984 10 9 Ron Kittle 428 91 14 0 30 64 66 46 5 121 5 0 4 3 6 7 .213 .294 .456 .750 56   7.1 3.2 10.3 .057 .026 .083 9.58 1984 10 9 Ron Kittle
1984 31 Tom Paciorek CHI T5W R 37 1B   25 39 2 1 0 .976   1984 31 Tom Paciorek 82 20 3 0 0 8 10 10 2 20 1 0 2 2 0 1 .244 .326 .280 .606 9   1.0 0.5 1.5 .040 .020 .060 1.19 1984 31 Tom Paciorek
1984 29 Jerry Hairston CHI T5W B 32 DH   22 40 2 1 0 .977   1984 29 Jerry Hairston 69 17 2 0 1 13 3 12 2 6 1 0 0 0 1 1 .246 .366 .319 .685 8   1.4 0.5 1.9 .064 .023 .086 1.80 1984 29 Jerry Hairston
     
1985 13 12 Rudy Law CHI 3W L 28 CF   104 153 6 1 2 .994   1985 13 12 Rudy Law 268 68 15 4 3 44 26 20 0 25 2 4 1 20 5 4 .254 .309 .373 .682 33   5.3 2.0 7.3 .051 .019 .070 6.41 1985 13 12 Rudy Law
1985 20 Ron Kittle CHI 3W R 27 DH   57 88 2 1 1 .989   1985 20 Ron Kittle 184 39 7 0 10 24 23 18 1 46 2 0 0 1 1 6 .212 .289 .413 .702 21   3.2 1.1 4.3 .056 .019 .075 3.92 1985 20 Ron Kittle
1985 30 Tom Paciorek CHI 3W R 38 NL-RF   21 25 1 1 0 .963   1985 30 Tom Paciorek 60 16 1 0 0 6 7 5 0 12 1 0 1 1 0 2 .267 .328 .283 .611 6   0.7 0.3 1.0 .033 .014 .048 0.72 1985 30 Tom Paciorek
1985 29 Reid Nichols CHI 3W R 26 CF   25 23 0 0 0 1.000   1985 29 Reid Nichols 39 11 2 0 0 4 6 5 0 5 0 1 0 1 1 0 .282 .364 .333 .697 5   0.8 0.2 1.0 .032 .008 .040 0.67 1985 29 Reid Nichols
1985 35 Luis Salazar CHI 3W R 29 3B,CF   26 10 0 1 0 .909   1985 35 Luis Salazar 15 2 1 0 0 1 1 0 0 2 0 2 0 0 0 0 .133 .133 .200 .333 0   - 0.1 0.1 .000 .004 .004 0.02 1985 35 Luis Salazar
     
1986 20 13 Bobby Bonilla R CHI 5W B 23 1B/NL-LF,RF   39 82 1 1 1 .988   1986 20 13 Bobby Bonilla 116 33 4 1 1 18 14 16 1 25 0 0 0 1 0 3 .284 .371 .362 .733 16   2.2 0.9 3.1 .056 .023 .079 2.78 1986 20 13 Bobby Bonilla
1986 34 Carlton Fisk BBW CHI 5W R 38 C,DH   31 66 5 4 0 .947   1986 34 Carlton Fisk 114 25 5 0 2 9 12 6 1 25 2 0 3 1 2 4 .219 .264 .316 .580 9   0.3 0.6 0.9 .010 .019 .029 0.49 1986 34 Carlton Fisk
1986 36 Reid Nichols CHI 5W R 27   31 52 2 1 0 .982   1986 36 Reid Nichols 68 14 2 0 0 2 2 3 0 9 0 1 1 0 2 1 .206 .236 .235 .471 3   0.1 0.7 0.8 .003 .023 .026 0.41 1986 36 Reid Nichols
1986 33 John Cangelosi R CHI 5W B 23 CF   29 35 2 1 0 .974   1986 33 John Cangelosi 83 14 2 1 0 10 3 5 0 12 0 3 0 4 1 0 .169 .216 .217 .433 5   0.6 0.5 1.1 .021 .017 .038 0.68 1986 33 John Cangelosi
1986 25 Steve Lyons CHI 5W L 26 CF   22 46 2 0 0 1.000   1986 25 Steve Lyons 71 17 1 1 0 6 5 5 0 12 0 3 1 1 1 1 .239 .286 .282 .568 6   1.3 0.5 1.8 .059 .023 .082 1.64 1986 25 Steve Lyons
1986 27 Ron Kittle CHI 5W R 28 DH   20 37 3 0 0 1.000   1986 27 Ron Kittle 66 13 4 0 3 7 6 11 0 21 0 0 0 1 1 3 .197 .312 .394 .706 8   0.9 0.7 1.6 .045 .035 .080 1.44 1986 27 Ron Kittle
     
1987 8 7 Gary Redus CHI 5W R 30 RF   98 188 11 5 3 .975   1987 8 7 Gary Redus 352 88 20 5 11 66 39 49 0 65 0 2 5 37 6 3 .250 .337 .429 .766 59   7.6 2.7 10.3 .078 .028 .105 10.56 1987 8 7 Gary Redus
1987 20 Daryl Boston CHI 5W L 24 CF   51 95 2 2 1 .980   1987 20 Daryl Boston 172 50 12 0 6 28 18 10 0 40 0 2 1 3 2 2 .291 .328 .465 .793 26   2.8 1.3 4.1 .055 .025 .080 3.68 1987 20 Daryl Boston
     
Pos St All- Other Left Field Fielding Statistics Pos St Batting Statistics as Left Fielder Win Shares Pos St
Year Rank Rank Name HOF MVP Star Rookie GG SS Team Stdg Bats Age Pos Games PO Assts Err DP F Pct. Year Rank Rank Name At Bats Hits 2B 3B HR Runs RBI BB IBB SO HP SH SF SB CS GDP BA OBA SA OPS RC B WS F WS T WS BWS/G FWS/G TWS/G Adj WSQ Year Rank Rank Name
1988 18 12 Dan Pasqua CHI 5W L 26 RF   65 144 4 0 0 1.000   1988 18 12 Dan Pasqua 208 53 9 2 8 27 23 24 3 44 2 1 1 0 0 5 .255 .336 .433 .769 30   4.2 1.4 5.6 .065 .022 .086 5.17 1988 18 12 Dan Pasqua
1988 6 Gary Redus CHI 5W R 31   54 109 4 2 1 .983   1988 6 Gary Redus 198 56 9 3 5 33 30 23 1 38 2 0 6 20 0 4 .283 .354 .434 .788 36   8.1 1.1 9.2 .150 .020 .170 11.95 1988 6 Gary Redus
1988 23 Daryl Boston CHI 5W L 25 CF   44 78 3 5 2 .942   1988 23 Daryl Boston 127 31 8 0 4 15 13 10 3 20 0 2 1 4 1 3 .244 .297 .402 .699 15   2.4 0.7 3.1 .055 .016 .070 2.59 1988 23 Daryl Boston
     
1989 24 14 Daryl Boston CHI 7W L 26 RF   57 108 2 4 0 .965   1989 24 14 Daryl Boston 154 36 2 3 2 16 12 12 2 23 0 1 1 5 1 1 .234 .287 .325 .612 15   2.7 0.6 3.3 .047 .011 .058 2.46 1989 24 14 Daryl Boston
1989 16 Dan Pasqua CHI 7W L 27 RF   52 105 1 1 1 .991   1989 16 Dan Pasqua 167 37 5 0 5 12 27 16 0 40 1 0 4 0 2 0 .222 .287 .341 .628 18   3.6 0.8 4.4 .069 .015 .085 3.97 1989 16 Dan Pasqua
1989 13 Lance Johnson CHI 7W L 25   42 102 0 1 0 .990   1989 13 Lance Johnson 158 47 7 2 0 20 14 9 0 23 0 2 0 11 3 1 .297 .335 .367 .702 21   4.3 0.7 5.0 .102 .017 .119 5.35 1989 13 Lance Johnson
     
1990 2 2 Ivan Calderon CHI 2W R 28 DH   130 267 7 7 1 .975   1990 2 2 Ivan Calderon 493 131 37 2 8 65 57 44 6 71 1 0 7 27 14 21 .266 .323 .398 .721 58   11.9 3.5 15.4 .092 .027 .118 17.20 1990 2 2 Ivan Calderon
1990 14 Dan Pasqua CHI 2W L 28 RF,DH   21 37 3 3 0 .930   1990 14 Dan Pasqua 57 22 10 0 1 13 9 4 2 7 1 0 3 0 1 1 .386 .415 .614 1.029 14   3.4 0.5 3.9 .162 .024 .186 5.45 1990 14 Dan Pasqua
1990 9 Phil Bradley CHI 2W R 31   23 35 1 1 0 .973   1990 9 Phil Bradley 49 10 1 0 0 6 1 10 2 11 3 1 0 3 1 0 .204 .371 .224 .595 6   1.0 0.4 1.4 .043 .017 .061 1.10 1990 9 Phil Bradley
     
1991 5 5 Tim Raines CHI 2W B 31   133 273 12 3 3 .990   1991 5 5 Tim Raines 523 136 17 4 3 89 42 72 8 60 5 8 3 43 13 6 .260 .353 .325 .678 69   12.0 3.8 15.8 .090 .029 .119 17.95 1991 5 5 Tim Raines
     
1992 3 3 Tim Raines CHI 3W B 32   129 311 12 2 0 .994   1992 3 3 Tim Raines 495 148 18 7 7 91 50 69 3 43 0 4 7 41 5 4 .299 .380 .406 .786 89   21.0 3.7 24.7 .163 .029 .191 32.59 1992 3 3 Tim Raines
     
1993 4 4 Tim Raines CHI 1W B 33   112 200 5 0 2 1.000   1993 4 4 Tim Raines 411 126 16 4 16 73 54 60 3 35 3 2 2 21 7 7 .307 .397 .482 .879 82   17.3 2.1 19.4 .154 .019 .173 24.57 1993 4 4 Tim Raines
1993 18 Bo Jackson CHI 1W R 30 DH   28 62 2 0 0 1.000   1993 18 Bo Jackson 88 24 3 0 6 10 13 13 1 28 0 0 0 0 1 3 .273 .366 .511 .877 16   2.3 0.7 3.0 .082 .025 .107 2.99 1993 18 Bo Jackson
1993 T35 Steve Sax CHI 1W R 33 DH   26 32 0 0 0 1.000   1993 T35 Steve Sax 81 20 4 0 1 13 3 6 0 4 0 1 0 3 1 1 .247 .299 .333 .632 8   - 0.3 0.3 .000 .012 .012 0.10 1993 T35 Steve Sax
1993 33 Mike Huff CHI 1W R 29   31 23 0 0 0 1.000   1993 33 Mike Huff 17 2 1 0 0 1 5 5 0 3 0 0 2 1 0 0 .118 .292 .176 .468 2   0.3 0.2 0.5 .010 .006 .016 0.19 1993 33 Mike Huff
     
1994 4 4 Tim Raines CHI 1C B 34   96 204 3 4 1 .981   1994 4 4 Tim Raines 378 102 15 5 10 79 52 60 3 42 1 4 3 13 0 10 .270 .369 .415 .784 63   10.4 2.3 12.7 .108 .024 .132 14.26 1994 4 4 Tim Raines
     
1995 6 6 Tim Raines CHI 3C B 35 DH   107 193 7 4 1 .980   1995 6 6 Tim Raines 412 116 18 4 8 68 55 57 3 44 2 1 3 12 2 7 .282 .369 .403 .772 66   10.5 1.4 11.9 .098 .013 .111 12.94 1995 6 6 Tim Raines
1995 20 Lyle Mouton R CHI 3C R 26 RF   29 34 1 1 0 .972   1995 20 Lyle Mouton 77 22 4 0 2 11 8 9 0 21 0 0 1 1 0 0 .286 .356 .416 .772 13   2.2 0.3 2.5 .076 .010 .086 2.39 1995 20 Lyle Mouton
1995 31 Dave Martinez CHI 3C L 30 1B,RF   30 22 0 2 0 .917   1995 31 Dave Martinez 45 11 1 0 3 8 10 3 0 8 1 4 1 1 0 0 .244 .300 .467 .767 7   1.2 0.1 1.3 .040 .003 .043 0.88 1995 31 Dave Martinez
     
1996 3 3 Tony Phillips CHI 2C B 37   150 343 13 7 3 .981   1996 3 3 Tony Phillips 570 159 28 3 12 118 62 123 9 127 4 1 8 13 8 6 .279 .406 .402 .808 104   16.9 3.1 20.0 .113 .021 .133 23.95 1996 3 3 Tony Phillips
1996 27 Lyle Mouton CHI 2C R 27 RF,DH   22 26 0 2 0 .929   1996 27 Lyle Mouton 52 18 3 0 2 8 15 3 2 11 2 0 2 1 0 0 .346 .390 .519 .909 11   1.5 0.2 1.7 .068 .009 .077 1.55 1996 27 Lyle Mouton
     
1997 4 3 Albert Belle a-inj CHI 2C R 30   154 352 1 10 0 .972   1997 4 3 Albert Belle 610 169 45 1 30 88 115 48 6 98 6 0 8 3 4 26 .277 .332 .502 .834 91   15.1 2.8 17.9 .098 .018 .116 19.70 1997 4 3 Albert Belle
     
1998 1 1 Albert Belle 8 S CHI 2C R 31   159 316 11 8 3 .976   1998 1 1 Albert Belle 594 196 47 2 49 110 152 79 10 83 1 0 15 6 3 17 .330 .401 .663 1.064 157   33.8 2.6 36.4 .213 .016 .229 54.27 1998 1 1 Albert Belle
1998 31 Jeff Abbott R CHI 2C R 25 CF,RF   20 10 0 0 0 1.000   1998 31 Jeff Abbott 8 1 0 0 0 1 0 2 0 1 0 0 0 0 0 0 .125 .300 .125 .425 0   - 0.1 0.1 .000 .005 .005 0.02 1998 31 Jeff Abbott
     
1999 8 8 Carlos Lee R-T7 CHI 2C R 23   105 201 3 4 0 .981   1999 8 8 Carlos Lee 413 126 27 1 12 62 66 12 0 55 2 1 5 3 2 11 .305 .324 .462 .786 58   7.0 1.8 8.8 .067 .017 .084 8.59 1999 8 8 Carlos Lee
1999 31 Darrin Jackson CHI 2C R 36 CF   46 38 1 1 0 .975   1999 31 Darrin Jackson 53 12 3 0 0 3 3 1 0 6 0 1 0 0 1 0 .226 .241 .283 .524 3   0.1 0.4 0.5 .002 .009 .011 0.18 1999 31 Darrin Jackson
1999 25 Brian Simmons R CHI 2C B 25   28 32 0 1 0 .970   1999 25 Brian Simmons 56 11 1 1 4 7 10 4 0 15 0 0 0 3 0 1 .196 .250 .464 .714 7   0.8 0.3 1.1 .029 .011 .039 0.73 1999 25 Brian Simmons
     
2000 7 6 Carlos Lee CHI 1C R 24   149 274 10 3 0 .990   2000 7 6 Carlos Lee 562 170 29 2 23 107 89 38 1 90 3 1 5 13 4 17 .302 .347 .484 .831 91   11.3 2.7 14.0 .076 .018 .094 13.37 2000 7 6 Carlos Lee
2000 29 Jeff Abbott CHI 1C R 27 CF   20 23 0 0 0 1.000   2000 29 Jeff Abbott 55 16 2 0 1 11 5 9 0 12 0 0 0 0 0 1 .291 .391 .382 .773 9   0.9 0.2 1.1 .045 .010 .055 0.80 2000 29 Jeff Abbott
     
2001 6 6 Carlos Lee CHI 3C R 25   130 241 9 8 0 .969   2001 6 6 Carlos Lee 491 131 32 3 21 67 69 35 1 74 6 1 2 17 7 12 .267 .322 .473 .795 72   10.6 2.5 13.1 .082 .019 .101 13.94 2001 6 6 Carlos Lee
2001 20 Jeff Liefer R CHI 3C L 26   35 47 2 0 0 1.000   2001 20 Jeff Liefer 118 36 7 0 9 19 16 6 1 33 2 1 0 0 0 0 .305 .349 .593 .942 25   3.0 0.5 3.5 .086 .014 .100 3.71 2001 20 Jeff Liefer
2001 34 Aaron Rowand R CHI 3C R 23 CF   34 12 0 0 0 1.000   2001 34 Aaron Rowand 8 2 0 0 0 1 0 2 0 1 2 0 0 1 0 0 .250 .500 .250 .750 2   0.3 0.2 0.5 .009 .006 .015 0.20 2001 34 Aaron Rowand
     
Pos St All- Other Left Field Fielding Statistics Pos St Batting Statistics as Left Fielder Win Shares Pos St
Year Rank Rank Name HOF MVP Star Rookie GG SS Team Stdg Bats Age Pos Games PO Assts Err DP F Pct. Year Rank Rank Name At Bats Hits 2B 3B HR Runs RBI BB IBB SO HP SH SF SB CS GDP BA OBA SA OPS RC B WS F WS T WS BWS/G FWS/G TWS/G Adj WSQ Year Rank Rank Name
2002 5 5 Carlos Lee CHI 2C R 26   137 249 8 1 1 .996   2002 5 5 Carlos Lee 482 125 24 2 25 79 78 72 4 72 2 0 7 1 4 5 .259 .353 .473 .826 84   13.8 2.6 16.4 .101 .019 .120 18.81 2002 5 5 Carlos Lee
2002 33 Jeff Liefer CHI 2C L 27 1B   24 35 0 0 0 1.000   2002 33 Jeff Liefer 72 16 2 0 3 10 8 5 0 19 0 0 0 0 0 1 .222 .273 .375 .648 7   0.8 0.3 1.1 .033 .013 .046 0.78 2002 33 Jeff Liefer
2002 44 Aaron Rowand CHI 2C R 24 CF   40 12 1 0 0 1.000   2002 44 Aaron Rowand 17 2 1 0 1 1 2 1 0 7 0 0 0 0 0 0 .118 .167 .353 .520 1   0.1 0.2 0.3 .003 .005 .008 0.09 2002 44 Aaron Rowand
     
2003 4 4 Carlos Lee T18 CHI 2C R 27   156 308 8 7 1 .978   2003 4 4 Carlos Lee 618 179 35 1 31 99 111 37 2 91 4 0 7 18 4 20 .290 .330 .500 .830 98   15.7 2.9 18.6 .101 .019 .119 19.11 2003 4 4 Carlos Lee
2003 32 Aaron Rowand CHI 2C R 25 CF   24 6 0 0 0 1.000   2003 32 Aaron Rowand 1 0 0 0 0 0 0 0 0 0 0 0 0 0 0 0 .000 .000 .000 .000 0   - 0.1 0.1 .000 .004 .004 0.02 2003 32 Aaron Rowand
     
2004 3 3 Carlos Lee CHI 2C R 28   148 282 11 0 2 1.000   2004 3 3 Carlos Lee 572 173 36 0 29 98 93 53 3 82 7 0 6 11 5 9 .302 .365 .517 .882 110   19.5 2.9 22.4 .132 .020 .151 26.40 2004 3 3 Carlos Lee
     
2005 6 6 Scott Podsednik 12 a CHI 1C L 29   124 260 3 3 1 .989   2005 6 6 Scott Podsednik 479 136 27 1 0 77 24 44 0 73 3 5 5 55 22 6 .284 .345 .344 .689 61   8.7 4.0 12.7 .070 .032 .102 12.60 2005 6 6 Scott Podsednik
2005 28 Timo Perez CHI 1C L 30 RF   27 33 3 1 0 .973   2005 28 Timo Perez 69 17 3 0 0 6 5 6 1 5 0 2 1 0 1 2 .246 .303 .290 .593 6   - 0.6 0.6 .000 .022 .022 0.28 2005 28 Timo Perez
     
2006 12 10 Scott Podsednik CHI 3C L 30   135 245 4 8 0 .969   2006 12 10 Scott Podsednik 512 134 27 6 3 82 44 51 1 92 2 8 4 40 19 7 .262 .329 .355 .684 61   7.1 1.5 8.6 .053 .011 .064 6.86 2006 12 10 Scott Podsednik
2006 20 Pablo Ozuna CHI 3C R 31   39 45 3 0 0 1.000   2006 20 Pablo Ozuna 135 46 11 2 1 15 12 6 0 11 3 2 0 1 4 1 .341 .382 .474 .856 23   3.7 0.4 4.1 .095 .010 .105 4.20 2006 20 Pablo Ozuna
2006 33 Rob Mackowiak CHI 3C L 30 CF,RF   28 11 1 0 0 1.000   2006 33 Rob Mackowiak 15 6 1 0 0 1 1 1 0 4 1 0 0 1 1 0 .400 .471 .467 .938 3   0.4 0.1 0.5 .014 .004 .018 0.21 2006 33 Rob Mackowiak
     
2007 34 14 Scott Podsednik CHI 4C L 31   54 108 4 4 1 .966   2007 34 14 Scott Podsednik 195 47 11 4 2 27 10 13 0 31 4 4 0 11 4 9 .241 .302 .369 .671 20   - 0.8 0.8 .000 .015 .015 0.33 2007 34 14 Scott Podsednik
2007 17 Rob Mackowiak CHI 4C L 31   58 90 3 2 1 .979   2007 17 Rob Mackowiak 169 44 6 1 4 25 25 15 1 37 4 0 2 2 0 3 .260 .332 .379 .711 22   3.9 0.7 4.6 .067 .012 .079 4.37 2007 17 Rob Mackowiak
2007 19 Josh Fields R-T7 CHI 4C R 24 3B   21 34 2 2 0 .947   2007 19 Josh Fields 80 22 6 0 6 17 17 10 0 22 0 2 2 0 0 3 .275 .348 .575 .923 16   2.8 0.3 3.1 .133 .014 .148 4.02 2007 19 Josh Fields
     
2008 1 1 Carlos Quentin 5 S CHI 1C R 25   130 228 5 7 2 .971   2008 1 1 Carlos Quentin 480 138 26 1 36 96 100 66 0 80 20 0 3 7 3 16 .288 .394 .571 .965 109   20.5 2.6 23.1 .158 .020 .178 31.93 2008 1 1 Carlos Quentin
2008 38 Dewayne Wise CHI 1C L 30 CF   24 28 2 2 0 .938   2008 38 Dewayne Wise 56 10 2 1 2 7 5 4 0 11 1 2 0 2 0 2 .179 .246 .357 .603 5   0.4 0.3 0.7 .017 .013 .029 0.39 2008 38 Dewayne Wise
     
2009 11 10 Carlos Quentin CHI 3C R 26   88 157 6 2 2 .988   2009 11 10 Carlos Quentin 321 75 13 0 20 45 52 30 2 49 15 0 1 3 0 9 .234 .327 .461 .788 49   5.6 2.1 7.7 .064 .024 .088 7.31 2009 11 10 Carlos Quentin
2009 12 Scott Podsednik CHI 3C L 33 CF   78 139 3 0 1 1.000   2009 12 Scott Podsednik 284 84 10 2 3 39 24 27 0 39 2 2 0 16 8 4 .296 .361 .377 .738 40   5.4 1.8 7.2 .069 .023 .092 7.02 2009 12 Scott Podsednik
     
2010 6 6 Juan Pierre CHI 2C L 32   149 307 4 1 1 .997   2010 6 6 Juan Pierre 610 165 18 3 1 88 46 42 0 44 20 14 2 61 18 8 .270 .337 .315 .652 73   10.3 2.0 12.3 .069 .013 .083 11.04 2010 6 6 Juan Pierre
Copyright 2009-11 by Andre Lower
Sources:
All-Time Major League Handbook
Win Shares Digital Update
baseball-reference.com
ESPN Baseball Encyclopedia